VTBS/BKK METAR and TAF weather

Enter ICAO airport designator
Station Type Date Time Source
VTBS METAR 2020/03/29 11:00 UTC NOAA

VTBS 291100Z 20011KT 9999 FEW020 32/21 Q1006 NOSIG


Station Type Date Time Source
VTBS Decoded METAR 2020/03/29 11:00 UTC NOAA

Chon Buri, Thailand (VTBS) 13-22N 100-59E 2M
Mar 29, 2020 - 07:00 AM EDT / 2020.03.29 1100 UTC
Wind: from the SSW (200 degrees) at 13 MPH (11 KT):0
Visibility: greater than 7 mile(s):0
Sky conditions: mostly clear
Temperature: 89 F (32 C)
Dew Point: 69 F (21 C)
Relative Humidity: 52%
Pressure (altimeter): 29.71 in. Hg (1006 hPa)
ob: VTBS 291100Z 20011KT 9999 FEW020 32/21 Q1006 NOSIG
cycle: 11

Station Type Date Time Source
VTBS TAF 2020/03/29 06:00 UTC NOAA

TAF VTBS 290500Z 2906/3012 20010KT 9999 FEW025
BECMG 2920/2922 14005KT
BECMG 3001/3003 20010KT

Example: see airport list